Social login voor leden:

1. METAR EBOS

METAR EBOS 251620Z 34020KT 9999 FEW020 BKN040 08/04 Q1031 TEMPO 33020G30KT

2. TAF EBOS

TAF EBOS 251620Z 34020KT 9999 FEW020 BKN040 08/04 Q1031 TEMPO 33020G30KT

3. NOTAMS EBOS

Klik hier voor een overzicht van de notams.

Deze pagina promoten

Noordzee Vliegclub - Nieuwpoortsesteenweg 947 8400 Oostende - Tel 059 30 04 79 - Dit e-mailadres wordt beveiligd tegen spambots. JavaScript dient ingeschakeld te zijn om het te bekijken.

 - Copyright 2017